Aeroporto :
LOGIN :

Iscrizione | Disclaimer

   EN    FR    IT 

 










Sommario :    VFR   VFR Marginale   IFR   IFR Intensivo   IFR Molto Intensivo
Visibilità : 
Base nubi : 
>= 8 km
>= 3000ft
5 / 8 km
1000 / 3000 ft
1500m / 5 km
500 / 1000 ft
800 / 1500m
200 / 500 ft
< 800m
< 200 ft
Simboli :   Temporali  Nebbia  Neve Forte  Precipitazioni Forti  Vento > 20 kt
SIGMETs :   Varie  Temporali  Ghiacco  Turbolenza  Onda orograficha  Ceneri Vulcaniche






- Altitudine del aeroporto : 659 ft
- Codice IATA : LGG


EBLG - Liège

ULTIMO METAR :
  • 081750Z 03004KT CAVOK 20/04 Q1022 NOSIG

METARs OBSOLETI :
  • 081720Z 01005KT CAVOK 21/03 Q1022 NOSIG
  • 081650Z VRB02KT CAVOK 23/01 Q1022 NOSIG
  • 081620Z 26003KT 220V340 CAVOK 23/02 Q1022 NOSIG
  • 081550Z 31003KT 220V350 CAVOK 23/02 Q1022 NOSIG
  • 081520Z 29004KT 240V340 CAVOK 23/03 Q1023 NOSIG
  • 081450Z VRB02KT CAVOK 23/02 Q1023 NOSIG

TAF TAF EBLG
Valido dal 08 a 18 ore il 10 a 00 ore UTC


081707Z 0818/0924 VRB03KT CAVOK
TEMPO 0901/0908 3500 BR



MetMap, La meteo Aeronautica in un colpo d'occhio ! - Copyright ORBIFLY Dicembre 2007 - Disclaimer

ORBIFLY MET'MAP TEAM :

Programmazione e sviluppo : Alexandra Zaïnal
Concezione : Baudouin d'Aumeries
Aiuto per la programmazione : Marc-Olivier Méhu
Supporto tecnico e logistico : Manuel Goepfert
Aiuto per la traduzione : Arnaldo La Scala

Contatto : metmap@orbifly.com




FONTI E CREDITI :

   NOAA